createdAt,value
2018-09-13T00:01:45.013Z,24.40
2018-09-13T00:04:13.454Z,24.20
2018-09-13T00:06:41.661Z,24.00
2018-09-13T00:09:10.300Z,23.70
2018-09-13T00:11:38.612Z,23.40
2018-09-13T00:14:07.225Z,23.30
2018-09-13T00:16:35.497Z,23.30
2018-09-13T00:19:03.709Z,23.30
2018-09-13T00:21:31.913Z,23.30
2018-09-13T00:24:00.115Z,23.40
2018-09-13T00:26:28.561Z,23.40
2018-09-13T00:28:56.775Z,23.40
2018-09-13T00:31:25.013Z,23.20
2018-09-13T00:33:53.247Z,23.20
2018-09-13T00:36:21.677Z,23.40
2018-09-13T00:38:49.965Z,23.50
2018-09-13T00:41:18.237Z,23.70
2018-09-13T00:43:46.557Z,23.80
2018-09-13T00:46:14.861Z,23.90
2018-09-13T00:48:43.141Z,23.90
2018-09-13T00:51:11.365Z,24.10
2018-09-13T00:53:39.565Z,24.00
2018-09-13T00:56:08.192Z,24.00
2018-09-13T00:58:36.645Z,24.10
2018-09-13T01:01:05.582Z,24.20
2018-09-13T01:03:33.797Z,24.20
2018-09-13T01:06:02.007Z,24.40
2018-09-13T01:08:30.404Z,24.10
2018-09-13T01:10:58.688Z,24.30
2018-09-13T01:13:26.918Z,24.20
2018-09-13T01:15:55.210Z,24.10
2018-09-13T01:18:23.442Z,24.10
2018-09-13T01:20:51.963Z,24.10
2018-09-13T01:23:20.330Z,23.90
2018-09-13T01:25:48.787Z,23.80
2018-09-13T01:28:16.981Z,23.60
2018-09-13T01:30:45.165Z,23.40
2018-09-13T01:33:13.510Z,23.20
2018-09-13T01:35:41.760Z,23.00
2018-09-13T01:38:10.071Z,22.80
2018-09-13T01:40:38.317Z,22.70
2018-09-13T01:43:06.732Z,22.70
2018-09-13T01:45:35.173Z,22.50
2018-09-13T01:48:03.370Z,22.40
2018-09-13T01:50:31.585Z,22.30
2018-09-13T01:52:59.877Z,22.20
2018-09-13T01:55:28.184Z,22.00
2018-09-13T01:57:56.365Z,21.90
2018-09-13T02:00:24.573Z,21.80
2018-09-13T02:02:53.066Z,21.80
2018-09-13T02:05:21.354Z,21.60
2018-09-13T02:07:49.610Z,21.60
2018-09-13T02:10:17.793Z,21.60
2018-09-13T02:12:46.070Z,21.60
2018-09-13T02:15:14.516Z,21.60
2018-09-13T02:17:42.866Z,21.70
2018-09-13T02:20:11.089Z,21.80
2018-09-13T02:22:39.703Z,21.60
2018-09-13T02:25:08.101Z,21.60
2018-09-13T02:27:36.353Z,21.70
2018-09-13T02:30:05.025Z,21.60
2018-09-13T02:32:33.445Z,21.50
2018-09-13T02:35:01.690Z,21.70
2018-09-13T02:37:30.017Z,21.70
2018-09-13T02:39:58.379Z,21.80
2018-09-13T02:42:26.590Z,21.80
2018-09-13T02:44:54.806Z,21.80
2018-09-13T02:47:23.029Z,21.80
2018-09-13T02:49:51.522Z,21.70
2018-09-13T02:52:19.764Z,21.60
2018-09-13T02:54:47.982Z,21.70
2018-09-13T02:57:16.305Z,21.50
2018-09-13T02:59:44.546Z,21.60
2018-09-13T03:02:13.062Z,21.60
2018-09-13T03:04:41.501Z,21.70
2018-09-13T03:07:09.694Z,21.70
2018-09-13T03:09:38.154Z,21.60
2018-09-13T03:12:06.614Z,21.60
2018-09-13T03:14:34.931Z,21.30
2018-09-13T03:17:03.109Z,21.30
2018-09-13T03:19:31.354Z,21.50
2018-09-13T03:21:59.746Z,21.50
2018-09-13T03:24:28.241Z,21.30
2018-09-13T03:26:56.534Z,21.30
2018-09-13T03:29:24.762Z,21.20
2018-09-13T03:31:53.189Z,21.20
2018-09-13T03:34:21.525Z,21.30
2018-09-13T03:36:49.950Z,21.40
2018-09-13T03:39:18.169Z,21.40
2018-09-13T03:41:46.395Z,21.20
2018-09-13T03:44:14.733Z,21.30
2018-09-13T03:46:43.122Z,21.40
2018-09-13T03:49:11.361Z,21.40
2018-09-13T03:51:39.593Z,21.30
2018-09-13T03:54:07.813Z,21.10
2018-09-13T03:56:36.098Z,21.00
2018-09-13T03:59:04.506Z,21.00
2018-09-13T04:01:32.677Z,21.00
2018-09-13T04:04:00.994Z,21.00
2018-09-13T04:06:29.509Z,21.00
2018-09-13T04:08:57.774Z,21.00
2018-09-13T04:11:25.994Z,21.00
2018-09-13T04:13:54.327Z,21.00
2018-09-13T04:16:22.638Z,21.10
2018-09-13T04:18:50.967Z,21.10
2018-09-13T04:21:19.198Z,21.10
2018-09-13T04:23:47.557Z,21.00
2018-09-13T04:26:15.747Z,21.10
2018-09-13T04:28:44.178Z,21.00
2018-09-13T04:31:12.457Z,21.00
2018-09-13T04:33:40.668Z,20.90
2018-09-13T04:36:10.071Z,20.80
2018-09-13T04:38:38.442Z,20.50
2018-09-13T04:41:07.900Z,20.30
2018-09-13T04:43:36.357Z,20.10
2018-09-13T04:46:04.582Z,20.00
2018-09-13T04:48:33.253Z,19.90
2018-09-13T04:51:01.874Z,19.80
2018-09-13T04:53:30.434Z,19.90
2018-09-13T04:55:58.752Z,19.90
2018-09-13T04:58:27.053Z,19.80
2018-09-13T05:00:55.410Z,19.90
2018-09-13T05:03:23.725Z,20.10
2018-09-13T05:05:52.107Z,20.00
2018-09-13T05:08:20.489Z,20.30
2018-09-13T05:10:48.740Z,20.30
2018-09-13T05:13:16.938Z,20.50
2018-09-13T05:15:45.231Z,20.70
2018-09-13T05:18:13.523Z,20.90
2018-09-13T05:20:41.847Z,21.00
2018-09-13T05:23:10.233Z,21.30
2018-09-13T05:25:38.470Z,21.20
2018-09-13T05:28:06.798Z,21.20
2018-09-13T05:30:35.273Z,21.20
2018-09-13T05:33:03.503Z,21.20
2018-09-13T05:35:31.808Z,21.00
2018-09-13T05:38:00.038Z,20.70
2018-09-13T05:40:28.757Z,20.70
2018-09-13T05:42:56.942Z,20.60
2018-09-13T05:45:25.118Z,20.60
2018-09-13T05:47:53.318Z,20.60
2018-09-13T05:50:21.734Z,20.60
2018-09-13T05:52:49.942Z,20.60
2018-09-13T05:55:18.221Z,20.60
2018-09-13T05:57:46.470Z,20.80
2018-09-13T06:00:14.984Z,20.90
2018-09-13T06:02:43.401Z,21.30
2018-09-13T06:05:11.620Z,21.70
2018-09-13T06:07:39.789Z,21.90
2018-09-13T06:10:08.034Z,22.00
2018-09-13T06:12:36.410Z,22.10
2018-09-13T06:15:04.948Z,22.40
2018-09-13T06:17:33.109Z,22.70
2018-09-13T06:20:01.317Z,22.90
2018-09-13T06:22:30.101Z,23.00
2018-09-13T06:24:58.431Z,23.10
2018-09-13T06:27:26.638Z,23.10
2018-09-13T06:29:54.877Z,23.10
2018-09-13T06:32:23.126Z,23.20
2018-09-13T06:34:51.514Z,23.30
2018-09-13T06:37:20.372Z,23.40
2018-09-13T06:39:48.593Z,23.80
2018-09-13T06:42:16.919Z,23.90
2018-09-13T06:44:45.186Z,24.00
2018-09-13T06:47:14.579Z,24.10
2018-09-13T06:49:43.433Z,24.10
2018-09-13T06:52:12.104Z,24.20
2018-09-13T06:54:40.310Z,24.30
2018-09-13T06:57:08.598Z,24.40
2018-09-13T06:59:36.867Z,24.50
2018-09-13T07:02:05.046Z,24.80
2018-09-13T07:04:33.269Z,25.00
2018-09-13T07:07:01.510Z,25.20
2018-09-13T07:09:29.774Z,25.30
2018-09-13T07:11:58.038Z,25.40
2018-09-13T07:14:26.210Z,25.50
2018-09-13T07:16:54.458Z,25.60
2018-09-13T07:19:22.704Z,25.60
2018-09-13T07:21:50.907Z,25.60
2018-09-13T07:24:19.115Z,25.70
2018-09-13T07:26:47.346Z,25.80
2018-09-13T07:29:15.691Z,25.80
2018-09-13T07:31:44.386Z,25.70
2018-09-13T07:34:12.588Z,25.60
2018-09-13T07:36:41.007Z,25.50
2018-09-13T07:39:10.985Z,25.40
2018-09-13T07:41:46.537Z,25.30
2018-09-13T07:44:14.786Z,25.10
2018-09-13T07:46:43.195Z,25.00
2018-09-13T07:49:11.782Z,24.90
2018-09-13T07:51:40.078Z,24.90
2018-09-13T07:54:08.418Z,24.80
2018-09-13T07:56:36.670Z,24.50
2018-09-13T07:59:05.738Z,24.40
2018-09-13T08:01:34.021Z,24.10
2018-09-13T08:04:02.333Z,23.70
2018-09-13T08:06:30.658Z,23.50
2018-09-13T08:08:58.928Z,23.40
2018-09-13T08:11:27.276Z,23.40
2018-09-13T08:13:55.490Z,23.60
2018-09-13T08:16:23.769Z,23.60
2018-09-13T08:18:52.167Z,23.70
2018-09-13T08:21:20.586Z,23.90
2018-09-13T08:23:48.824Z,23.80
2018-09-13T08:26:17.043Z,23.60
2018-09-13T08:28:45.238Z,23.70
2018-09-13T08:31:13.597Z,23.70
2018-09-13T08:33:41.812Z,23.80
2018-09-13T08:36:10.055Z,23.80
2018-09-13T08:38:38.262Z,24.00
2018-09-13T08:41:06.581Z,24.10
2018-09-13T08:43:35.057Z,24.20
2018-09-13T08:46:03.260Z,24.30
2018-09-13T08:48:31.494Z,24.40
2018-09-13T08:50:59.841Z,24.50
2018-09-13T08:53:29.062Z,24.60
2018-09-13T08:55:57.307Z,24.80
2018-09-13T08:58:25.525Z,25.00
2018-09-13T09:00:53.689Z,25.10
2018-09-13T09:03:22.020Z,25.10
2018-09-13T09:05:50.217Z,25.10
2018-09-13T09:08:18.604Z,25.00
2018-09-13T09:10:46.823Z,24.90
2018-09-13T09:13:15.109Z,24.80
2018-09-13T09:15:43.429Z,24.90
2018-09-13T09:18:11.628Z,25.10
2018-09-13T09:20:39.794Z,25.20
2018-09-13T09:23:08.365Z,25.30
2018-09-13T09:25:36.651Z,25.50
2018-09-13T09:28:04.934Z,25.40
2018-09-13T09:30:33.140Z,25.30
2018-09-13T09:33:01.343Z,25.30
2018-09-13T09:35:30.350Z,25.50
2018-09-13T09:37:58.686Z,25.20
2018-09-13T09:40:27.013Z,25.10
2018-09-13T09:42:55.216Z,24.90
2018-09-13T09:45:23.518Z,24.70
2018-09-13T09:47:52.564Z,24.50
2018-09-13T09:50:21.641Z,24.50
2018-09-13T09:52:49.998Z,24.50
2018-09-13T09:55:22.195Z,24.30
2018-09-13T09:57:50.672Z,24.20
2018-09-13T10:00:23.071Z,24.30
2018-09-13T10:02:51.345Z,24.40
2018-09-13T10:05:19.542Z,24.60
2018-09-13T10:07:47.790Z,24.80
2018-09-13T10:10:16.055Z,24.90
2018-09-13T10:12:44.622Z,25.20
2018-09-13T10:15:18.185Z,25.30
2018-09-13T10:17:51.622Z,25.70
2018-09-13T10:21:26.680Z,26.00
2018-09-13T10:24:00.362Z,26.20
2018-09-13T10:26:34.519Z,26.30
2018-09-13T10:29:07.660Z,26.30
2018-09-13T10:31:41.271Z,26.20
2018-09-13T10:34:15.093Z,26.00
2018-09-13T10:36:48.706Z,26.00
2018-09-13T10:39:22.291Z,26.30
2018-09-13T10:41:56.005Z,26.30
2018-09-13T10:44:29.720Z,26.70
2018-09-13T10:47:03.175Z,27.20
2018-09-13T10:49:36.985Z,27.90
2018-09-13T10:52:09.545Z,28.60
2018-09-13T10:54:41.281Z,29.20
2018-09-13T10:57:14.875Z,29.50
2018-09-13T10:59:43.806Z,29.30
2018-09-13T11:02:12.258Z,29.10
2018-09-13T11:04:40.485Z,28.90
2018-09-13T11:07:10.142Z,28.80
2018-09-13T11:09:38.522Z,28.60
2018-09-13T11:12:07.877Z,28.20
2018-09-13T11:14:51.235Z,28.10
2018-09-13T11:17:20.709Z,28.10
2018-09-13T11:19:49.072Z,27.80
2018-09-13T11:22:17.518Z,27.40
2018-09-13T11:24:47.086Z,27.30
2018-09-13T11:27:15.634Z,27.30
2018-09-13T11:29:44.318Z,27.80
2018-09-13T11:32:13.058Z,28.30
2018-09-13T11:34:41.935Z,28.60
2018-09-13T11:37:10.125Z,29.30
2018-09-13T11:39:38.410Z,30.60
2018-09-13T11:42:07.348Z,32.40
2018-09-13T11:44:35.809Z,33.90
2018-09-13T11:47:04.098Z,34.50
2018-09-13T11:49:32.381Z,34.20
2018-09-13T11:52:00.593Z,34.20
2018-09-13T11:54:28.886Z,34.20
2018-09-13T11:56:57.162Z,34.10
2018-09-13T11:59:25.390Z,33.90
2018-09-13T12:01:53.705Z,33.40
2018-09-13T12:04:21.950Z,32.80
2018-09-13T12:06:50.227Z,32.30
2018-09-13T12:09:18.581Z,31.80
2018-09-13T12:11:46.770Z,31.40
2018-09-13T12:14:15.255Z,31.30
2018-09-13T12:16:43.567Z,31.00
2018-09-13T12:19:11.916Z,30.70
2018-09-13T12:21:40.489Z,31.00
2018-09-13T12:24:08.690Z,32.40
2018-09-13T12:26:37.056Z,34.10
2018-09-13T12:29:05.604Z,35.10
2018-09-13T12:31:33.814Z,35.60
2018-09-13T12:34:02.116Z,35.90
2018-09-13T12:36:30.350Z,36.40
2018-09-13T12:38:59.290Z,36.70
2018-09-13T12:41:27.600Z,36.30
2018-09-13T12:43:55.885Z,35.80
2018-09-13T12:46:24.112Z,35.30
2018-09-13T12:48:52.737Z,34.70
2018-09-13T12:51:21.523Z,34.20
2018-09-13T12:53:49.815Z,33.90
2018-09-13T12:56:18.357Z,34.10
2018-09-13T12:58:46.651Z,34.40
2018-09-13T13:01:15.125Z,34.30
2018-09-13T13:03:43.483Z,34.00
2018-09-13T13:06:11.703Z,33.80
2018-09-13T13:08:40.047Z,33.40
2018-09-13T13:11:08.340Z,33.20
2018-09-13T13:13:37.021Z,33.00
2018-09-13T13:16:05.297Z,32.90
2018-09-13T13:18:33.532Z,32.80
2018-09-13T13:21:01.782Z,32.60
2018-09-13T13:23:30.001Z,32.60
2018-09-13T13:25:58.341Z,32.30
2018-09-13T13:28:26.546Z,32.10
2018-09-13T13:30:54.778Z,32.50
2018-09-13T13:33:23.031Z,33.20
2018-09-13T13:35:51.728Z,34.10
2018-09-13T13:38:20.206Z,34.40
2018-09-13T13:40:48.438Z,34.40
2018-09-13T13:43:16.658Z,34.60
2018-09-13T13:45:45.261Z,34.70
2018-09-13T13:48:13.588Z,34.90
2018-09-13T13:50:42.331Z,35.10
2018-09-13T13:53:10.555Z,35.30
2018-09-13T13:55:38.831Z,35.30
2018-09-13T13:58:07.157Z,35.40
2018-09-13T14:00:35.432Z,35.40
2018-09-13T14:03:03.722Z,35.40
2018-09-13T14:05:31.951Z,35.10
2018-09-13T14:08:00.326Z,35.00
2018-09-13T14:10:28.526Z,34.70
2018-09-13T14:12:56.827Z,34.40
2018-09-13T14:15:25.059Z,34.10
2018-09-13T14:17:53.255Z,33.90
2018-09-13T14:20:22.118Z,33.70
2018-09-13T14:22:51.033Z,33.60
2018-09-13T14:25:19.289Z,33.30
2018-09-13T14:27:47.569Z,33.00
2018-09-13T14:30:15.775Z,32.80
2018-09-13T14:32:44.292Z,32.70
2018-09-13T14:35:12.552Z,32.60
2018-09-13T14:37:40.769Z,32.40
2018-09-13T14:40:09.077Z,32.30
2018-09-13T14:42:37.438Z,32.30
2018-09-13T14:45:05.757Z,32.20
2018-09-13T14:47:34.020Z,32.30
2018-09-13T14:50:02.224Z,32.40
2018-09-13T14:52:30.472Z,32.70
2018-09-13T14:54:58.712Z,33.00
2018-09-13T14:57:27.005Z,33.30
2018-09-13T14:59:55.202Z,33.30
2018-09-13T15:02:23.427Z,33.30
2018-09-13T15:04:51.946Z,33.00
2018-09-13T15:07:20.270Z,32.90
2018-09-13T15:09:48.413Z,32.70
2018-09-13T15:12:16.639Z,32.40
2018-09-13T15:14:45.020Z,32.10
2018-09-13T15:17:13.264Z,31.80
2018-09-13T15:19:41.508Z,31.60
2018-09-13T15:22:09.725Z,31.30
2018-09-13T15:24:38.062Z,31.20
2018-09-13T15:27:06.304Z,31.30
2018-09-13T15:29:34.493Z,31.70
2018-09-13T15:32:02.751Z,32.10
2018-09-13T15:34:30.963Z,32.30
2018-09-13T15:36:59.352Z,32.50
2018-09-13T15:39:27.646Z,32.60
2018-09-13T15:41:55.889Z,32.40
2018-09-13T15:44:24.140Z,31.90
2018-09-13T15:46:52.554Z,31.40
2018-09-13T15:49:21.005Z,30.80
2018-09-13T15:51:49.367Z,30.50
2018-09-13T15:54:17.581Z,30.10
2018-09-13T15:56:46.184Z,29.80
2018-09-13T15:59:14.406Z,29.60
2018-09-13T16:01:42.815Z,29.30
2018-09-13T16:04:11.003Z,29.10
2018-09-13T16:06:39.189Z,29.00
2018-09-13T16:09:08.054Z,28.70
2018-09-13T16:11:36.436Z,28.50
2018-09-13T16:14:04.641Z,28.40
2018-09-13T16:16:33.048Z,28.40
2018-09-13T16:19:01.530Z,28.40
2018-09-13T16:21:29.926Z,28.30
2018-09-13T16:23:58.283Z,28.30
2018-09-13T16:29:29.942Z,28.30
2018-09-13T16:31:58.277Z,28.10
2018-09-13T16:34:27.640Z,27.80
2018-09-13T16:37:07.950Z,27.70
2018-09-13T16:39:41.614Z,27.70
2018-09-13T16:42:15.277Z,27.60
2018-09-13T16:44:51.314Z,27.60
2018-09-13T16:47:30.825Z,27.60
2018-09-13T16:50:00.234Z,27.50
2018-09-13T16:52:29.438Z,27.50
2018-09-13T16:54:57.702Z,27.40
2018-09-13T16:57:25.988Z,27.40
2018-09-13T16:59:54.224Z,27.40
2018-09-13T17:02:22.661Z,27.50
2018-09-13T17:09:18.508Z,27.30
2018-09-13T17:11:46.830Z,27.30
2018-09-13T17:14:27.450Z,27.10
2018-09-13T17:16:55.720Z,27.10
2018-09-13T17:19:24.181Z,27.10
2018-09-13T17:21:52.685Z,27.10
2018-09-13T17:24:21.626Z,27.10
2018-09-13T17:26:50.021Z,27.10
2018-09-13T17:29:18.328Z,27.00
2018-09-13T17:31:46.770Z,27.00
2018-09-13T17:34:15.221Z,27.00
2018-09-13T17:36:43.572Z,27.00
2018-09-13T17:39:13.132Z,27.00
2018-09-13T17:41:42.057Z,26.90
2018-09-13T17:44:10.747Z,26.80
2018-09-13T17:46:39.795Z,26.80
2018-09-13T17:49:08.240Z,26.70
2018-09-13T17:51:37.523Z,26.70
2018-09-13T17:54:06.925Z,26.70
2018-09-13T17:56:35.184Z,26.60
2018-09-13T17:59:05.706Z,26.60
2018-09-13T18:01:34.045Z,26.60
2018-09-13T18:04:02.359Z,26.60
2018-09-13T18:06:30.654Z,26.60
2018-09-13T18:08:59.032Z,26.60
2018-09-13T18:11:27.451Z,26.50
2018-09-13T18:13:56.360Z,26.50
2018-09-13T18:16:24.812Z,26.30
2018-09-13T18:18:53.133Z,26.20
2018-09-13T18:21:22.100Z,26.10
2018-09-13T18:23:50.403Z,26.00
2018-09-13T18:26:18.669Z,25.90
2018-09-13T18:28:47.048Z,25.80
2018-09-13T18:31:15.369Z,25.80
2018-09-13T18:33:43.621Z,25.70
2018-09-13T18:36:11.948Z,25.60
2018-09-13T18:38:40.840Z,25.60
2018-09-13T18:41:09.500Z,25.60
2018-09-13T18:43:37.977Z,25.40
2018-09-13T18:46:06.317Z,25.10
2018-09-13T18:48:35.392Z,24.90
2018-09-13T18:51:03.667Z,25.00
2018-09-13T18:53:32.274Z,24.80
2018-09-13T18:56:00.724Z,24.90
2018-09-13T18:58:29.460Z,24.90
2018-09-13T19:00:57.934Z,25.00
2018-09-13T19:03:26.277Z,24.90
2018-09-13T19:05:54.738Z,24.70
2018-09-13T19:08:23.024Z,24.70
2018-09-13T19:10:51.492Z,24.70
2018-09-13T19:13:19.858Z,24.50
2018-09-13T19:15:48.276Z,24.40
2018-09-13T19:18:16.629Z,24.30
2018-09-13T19:20:44.975Z,24.40
2018-09-13T19:23:13.295Z,24.10
2018-09-13T19:25:41.640Z,24.10
2018-09-13T19:28:10.045Z,24.00
2018-09-13T19:30:38.389Z,23.90
2018-09-13T19:33:06.822Z,23.90
2018-09-13T19:35:35.155Z,23.90
2018-09-13T19:38:03.539Z,23.90
2018-09-13T19:40:32.107Z,23.90
2018-09-13T19:43:00.710Z,23.60
2018-09-13T19:45:29.084Z,23.50
2018-09-13T19:47:57.469Z,23.40
2018-09-13T19:50:25.875Z,23.10
2018-09-13T19:52:54.248Z,23.10
2018-09-13T19:55:22.650Z,22.90
2018-09-13T19:57:51.127Z,22.70
2018-09-13T20:00:19.775Z,22.70
2018-09-13T20:02:48.474Z,22.80
2018-09-13T20:05:18.010Z,22.70
2018-09-13T20:07:46.758Z,22.50
2018-09-13T20:10:15.716Z,22.50
2018-09-13T20:12:44.220Z,22.50
2018-09-13T20:15:12.754Z,22.50
2018-09-13T20:17:41.269Z,22.40
2018-09-13T20:20:09.870Z,22.50
2018-09-13T20:22:38.170Z,22.20
2018-09-13T20:25:06.811Z,22.20
2018-09-13T20:27:35.190Z,22.20
2018-09-13T20:30:03.438Z,22.20
2018-09-13T20:32:31.741Z,22.30
2018-09-13T20:35:00.120Z,22.30
2018-09-13T20:37:28.388Z,22.20
2018-09-13T20:39:56.634Z,22.30
2018-09-13T20:42:24.887Z,22.40
2018-09-13T20:44:53.170Z,22.20
2018-09-13T20:47:21.559Z,22.50
2018-09-13T20:49:49.820Z,22.50
2018-09-13T20:52:18.093Z,22.50
2018-09-13T20:54:46.351Z,22.50
2018-09-13T20:57:14.825Z,22.60
2018-09-13T20:59:43.344Z,22.80
2018-09-13T21:02:11.714Z,22.70
2018-09-13T21:04:39.944Z,22.80
2018-09-13T21:07:08.231Z,22.70
2018-09-13T21:09:36.585Z,22.70
2018-09-13T21:12:04.854Z,22.70
2018-09-13T21:14:33.070Z,22.80
2018-09-13T21:17:01.611Z,22.80
2018-09-13T21:19:29.954Z,22.80
2018-09-13T21:21:58.581Z,22.60
2018-09-13T21:24:26.891Z,22.50
2018-09-13T21:26:55.182Z,22.50
2018-09-13T21:29:23.989Z,22.60
2018-09-13T21:31:52.268Z,22.60
2018-09-13T21:34:20.807Z,22.50
2018-09-13T21:36:49.234Z,22.40
2018-09-13T21:39:17.506Z,22.40
2018-09-13T21:41:46.462Z,22.30
2018-09-13T21:44:14.950Z,22.30
2018-09-13T21:46:43.257Z,22.10
2018-09-13T21:49:11.665Z,22.20
2018-09-13T21:51:39.998Z,22.20
2018-09-13T21:54:08.248Z,22.30
2018-09-13T21:56:36.597Z,22.30
2018-09-13T21:59:05.416Z,22.40
2018-09-13T22:01:33.719Z,22.40
2018-09-13T22:04:02.403Z,22.40
2018-09-13T22:06:31.160Z,22.40
2018-09-13T22:08:59.583Z,22.20
2018-09-13T22:11:28.079Z,22.40
2018-09-13T22:13:56.674Z,22.40
2018-09-13T22:16:24.994Z,22.30
2018-09-13T22:18:53.209Z,22.20
2018-09-13T22:21:22.215Z,22.20
2018-09-13T22:23:50.431Z,22.10
2018-09-13T22:26:18.728Z,22.20
2018-09-13T22:28:47.057Z,22.10
2018-09-13T22:31:15.348Z,22.00
2018-09-13T22:33:43.717Z,22.00
2018-09-13T22:36:11.975Z,22.10
2018-09-13T22:38:40.264Z,21.90
2018-09-13T22:41:08.580Z,22.00
2018-09-13T22:43:42.433Z,22.00
2018-09-13T22:46:10.735Z,21.80
2018-09-13T22:48:39.042Z,21.90
2018-09-13T22:51:07.367Z,21.90
2018-09-13T22:53:35.669Z,21.80
2018-09-13T22:56:03.873Z,21.80
2018-09-13T22:58:32.157Z,21.80
2018-09-13T23:01:00.450Z,21.70
2018-09-13T23:03:28.799Z,21.80
2018-09-13T23:05:57.065Z,21.80
2018-09-13T23:08:25.466Z,21.70
2018-09-13T23:10:53.735Z,21.70
2018-09-13T23:13:22.115Z,21.80
2018-09-13T23:15:50.422Z,21.80
2018-09-13T23:18:18.656Z,21.70
2018-09-13T23:20:46.907Z,21.70
2018-09-13T23:23:15.209Z,21.80
2018-09-13T23:25:43.473Z,21.80
2018-09-13T23:28:11.928Z,21.80
2018-09-13T23:30:40.161Z,21.70
2018-09-13T23:33:09.602Z,21.80
2018-09-13T23:35:38.029Z,21.80
2018-09-13T23:38:06.338Z,21.80
2018-09-13T23:40:34.581Z,21.80
2018-09-13T23:43:02.790Z,21.80
2018-09-13T23:45:31.307Z,21.90
2018-09-13T23:48:00.036Z,21.80
2018-09-13T23:50:28.664Z,21.80
2018-09-13T23:52:56.972Z,21.80
2018-09-13T23:55:25.348Z,21.80
2018-09-13T23:57:53.622Z,21.80
